createdAt,value
2023-04-18T00:01:55.627Z,14.16
2023-04-18T00:04:23.060Z,14.43
2023-04-18T00:06:51.648Z,14.19
2023-04-18T00:09:18.920Z,14.12
2023-04-18T00:11:47.986Z,14.19
2023-04-18T00:14:16.274Z,13.93
2023-04-18T00:16:43.511Z,14.02
2023-04-18T00:19:10.835Z,13.65
2023-04-18T00:21:38.451Z,13.77
2023-04-18T00:24:06.409Z,13.85
2023-04-18T00:26:33.717Z,13.97
2023-04-18T00:29:03.269Z,14.12
2023-04-18T00:31:30.560Z,14.03
2023-04-18T00:33:57.761Z,13.71
2023-04-18T00:36:25.383Z,13.31
2023-04-18T00:38:52.623Z,13.41
2023-04-18T00:41:20.830Z,13.40
2023-04-18T00:43:48.595Z,13.69
2023-04-18T00:46:18.039Z,13.63
2023-04-18T00:48:45.777Z,13.55
2023-04-18T00:51:14.006Z,13.43
2023-04-18T00:53:41.911Z,13.36
2023-04-18T00:56:09.837Z,13.48
2023-04-18T00:58:37.750Z,13.46
2023-04-18T01:01:06.109Z,13.30
2023-04-18T01:03:36.141Z,13.29
2023-04-18T01:06:03.844Z,13.28
2023-04-18T01:08:31.741Z,13.26
2023-04-18T01:10:59.423Z,13.29
2023-04-18T01:13:26.639Z,13.34
2023-04-18T01:15:54.068Z,13.38
2023-04-18T01:18:21.751Z,13.19
2023-04-18T01:20:52.079Z,13.32
2023-04-18T01:23:20.961Z,13.43
2023-04-18T01:25:50.360Z,13.39
2023-04-18T01:28:19.784Z,13.45
2023-04-18T01:30:46.580Z,13.38
2023-04-18T01:33:14.322Z,13.39
2023-04-18T01:35:41.813Z,13.46
2023-04-18T01:38:09.309Z,13.56
2023-04-18T01:40:36.880Z,13.53
2023-04-18T01:43:06.228Z,13.60
2023-04-18T01:45:33.559Z,13.65
2023-04-18T01:48:01.125Z,13.68
2023-04-18T01:50:28.678Z,13.68
2023-04-18T01:52:57.328Z,13.31
2023-04-18T01:55:24.781Z,13.30
2023-04-18T01:57:52.066Z,13.37
2023-04-18T02:00:22.113Z,12.58
2023-04-18T02:02:49.585Z,12.49
2023-04-18T02:05:17.241Z,12.36
2023-04-18T02:07:45.025Z,12.47
2023-04-18T02:10:12.928Z,12.67
2023-04-18T02:12:41.197Z,12.79
2023-04-18T02:15:09.833Z,12.85
2023-04-18T02:17:38.936Z,12.64
2023-04-18T02:20:07.850Z,12.71
2023-04-18T02:22:36.553Z,12.78
2023-04-18T02:25:03.826Z,12.87
2023-04-18T02:27:31.445Z,12.91
2023-04-18T02:29:59.171Z,12.77
2023-04-18T02:32:26.691Z,12.72
2023-04-18T02:34:56.293Z,12.94
2023-04-18T02:37:23.713Z,13.06
2023-04-18T02:39:52.001Z,12.90
2023-04-18T02:42:19.739Z,13.11
2023-04-18T02:44:47.198Z,13.05
2023-04-18T02:47:15.300Z,12.98
2023-04-18T02:49:42.934Z,12.93
2023-04-18T02:52:11.796Z,13.31
2023-04-18T02:54:39.337Z,13.51
2023-04-18T02:57:07.136Z,13.63
2023-04-18T02:59:34.945Z,13.40
2023-04-18T03:02:02.557Z,13.50
2023-04-18T03:04:30.051Z,13.50
2023-04-18T03:06:57.748Z,13.39
2023-04-18T03:09:27.875Z,13.44
2023-04-18T03:11:55.296Z,13.31
2023-04-18T03:14:23.124Z,13.60
2023-04-18T03:16:52.389Z,13.68
2023-04-18T03:19:21.766Z,13.69
2023-04-18T03:21:49.510Z,13.79
2023-04-18T03:24:17.462Z,13.85
2023-04-18T03:26:47.023Z,14.04
2023-04-18T03:29:14.752Z,14.13
2023-04-18T03:31:43.275Z,14.25
2023-04-18T03:34:11.096Z,14.20
2023-04-18T03:36:38.790Z,14.10
2023-04-18T03:39:06.645Z,14.13
2023-04-18T03:41:34.043Z,14.12
2023-04-18T03:44:04.205Z,14.20
2023-04-18T03:46:31.913Z,14.24
2023-04-18T03:48:59.023Z,14.25
2023-04-18T03:51:27.322Z,14.36
2023-04-18T03:53:54.953Z,14.48
2023-04-18T03:56:22.025Z,14.44
2023-04-18T03:58:50.335Z,14.51
2023-04-18T04:01:19.793Z,14.64
2023-04-18T04:03:50.092Z,14.61
2023-04-18T04:06:17.818Z,14.58
2023-04-18T04:08:46.442Z,14.62
2023-04-18T04:11:14.495Z,14.52
2023-04-18T04:13:41.890Z,14.54
2023-04-18T04:16:08.972Z,14.55
2023-04-18T04:18:38.484Z,14.48
2023-04-18T04:21:06.971Z,14.21
2023-04-18T04:23:34.532Z,14.38
2023-04-18T04:26:02.008Z,14.46
2023-04-18T04:28:30.136Z,14.56
2023-04-18T04:30:58.246Z,14.53
2023-04-18T04:33:26.117Z,14.42
2023-04-18T04:35:56.112Z,14.46
2023-04-18T04:38:24.155Z,14.41
2023-04-18T04:40:51.833Z,14.08
2023-04-18T04:43:20.680Z,14.29
2023-04-18T04:45:49.481Z,14.26
2023-04-18T04:48:17.645Z,14.30
2023-04-18T04:50:52.626Z,14.39
2023-04-18T04:53:21.863Z,14.40
2023-04-18T04:55:49.712Z,14.38
2023-04-18T04:58:16.567Z,14.41
2023-04-18T05:00:44.220Z,13.99
2023-04-18T05:03:11.637Z,14.02
2023-04-18T05:05:39.385Z,14.03
2023-04-18T05:08:07.971Z,14.23
2023-04-18T05:10:37.197Z,14.30
2023-04-18T05:13:04.970Z,14.40
2023-04-18T05:15:34.252Z,14.41
2023-04-18T05:18:01.408Z,14.47
2023-04-18T05:20:28.905Z,14.52
2023-04-18T05:22:56.932Z,14.65
2023-04-18T05:25:24.837Z,14.70
2023-04-18T05:27:54.575Z,14.77
2023-04-18T05:30:22.494Z,14.82
2023-04-18T05:32:50.121Z,14.91
2023-04-18T05:35:17.916Z,14.87
2023-04-18T05:37:46.447Z,14.78
2023-04-18T05:40:14.902Z,14.90
2023-04-18T05:42:42.578Z,14.86
2023-04-18T05:45:12.940Z,14.83
2023-04-18T05:47:40.913Z,14.84
2023-04-18T05:50:10.093Z,14.81
2023-04-18T05:52:38.481Z,14.61
2023-04-18T05:55:07.345Z,14.83
2023-04-18T05:57:34.931Z,14.76
2023-04-18T06:00:02.536Z,14.84
2023-04-18T06:02:32.329Z,14.81
2023-04-18T06:05:00.456Z,14.81
2023-04-18T06:07:28.346Z,14.59
2023-04-18T06:09:55.828Z,14.67
2023-04-18T06:12:23.446Z,14.67
2023-04-18T06:14:51.234Z,14.73
2023-04-18T06:17:18.068Z,15.14
2023-04-18T06:19:47.171Z,15.24
2023-04-18T06:22:17.077Z,15.45
2023-04-18T06:24:44.561Z,15.46
2023-04-18T06:27:20.698Z,15.58
2023-04-18T06:29:59.057Z,15.39
2023-04-18T06:32:26.522Z,15.55
2023-04-18T06:34:56.613Z,15.55
2023-04-18T06:37:24.748Z,15.63
2023-04-18T06:39:52.429Z,15.54
2023-04-18T06:42:22.192Z,15.88
2023-04-18T06:44:50.256Z,15.94
2023-04-18T06:47:17.882Z,15.67
2023-04-18T06:49:45.517Z,15.37
2023-04-18T06:52:14.896Z,15.13
2023-04-18T06:54:42.388Z,14.60
2023-04-18T06:57:10.038Z,15.05
2023-04-18T06:59:37.803Z,15.27
2023-04-18T07:02:05.534Z,16.08
2023-04-18T07:04:32.899Z,16.13
2023-04-18T07:07:00.660Z,16.10
2023-04-18T07:09:30.102Z,16.41
2023-04-18T07:11:58.945Z,16.03
2023-04-18T07:14:26.319Z,16.47
2023-04-18T07:16:54.088Z,16.72
2023-04-18T07:19:21.655Z,17.48
2023-04-18T07:21:49.060Z,17.64
2023-04-18T07:24:16.911Z,18.62
2023-04-18T07:26:47.048Z,19.58
2023-04-18T07:29:14.204Z,19.70
2023-04-18T07:31:41.937Z,19.32
2023-04-18T07:34:12.077Z,18.76
2023-04-18T07:36:40.178Z,19.22
2023-04-18T07:39:08.403Z,19.74
2023-04-18T07:41:37.215Z,20.49
2023-04-18T07:44:06.713Z,21.02
2023-04-18T07:46:34.506Z,20.98
2023-04-18T07:49:01.914Z,20.42
2023-04-18T07:51:29.833Z,20.20
2023-04-18T07:53:57.261Z,20.32
2023-04-18T07:56:25.340Z,20.97
2023-04-18T07:58:53.483Z,21.06
2023-04-18T08:01:23.649Z,21.38
2023-04-18T08:03:51.398Z,21.32
2023-04-18T08:06:20.495Z,21.99
2023-04-18T08:08:48.224Z,22.28
2023-04-18T08:11:16.052Z,21.84
2023-04-18T08:13:44.322Z,21.68
2023-04-18T08:16:13.720Z,20.75
2023-04-18T08:18:44.530Z,20.92
2023-04-18T08:21:12.160Z,20.88
2023-04-18T08:23:38.970Z,21.24
2023-04-18T08:26:07.792Z,21.86
2023-04-18T08:28:34.695Z,22.02
2023-04-18T08:31:02.579Z,21.50
2023-04-18T08:33:31.153Z,20.86
2023-04-18T08:35:59.814Z,21.03
2023-04-18T08:38:28.006Z,21.23
2023-04-18T08:40:56.493Z,21.57
2023-04-18T08:43:24.635Z,21.63
2023-04-18T08:45:51.948Z,21.53
2023-04-18T08:48:19.775Z,21.92
2023-04-18T08:50:47.305Z,22.04
2023-04-18T08:53:15.938Z,21.68
2023-04-18T08:55:43.229Z,21.55
2023-04-18T08:58:10.605Z,22.10
2023-04-18T09:00:38.028Z,22.03
2023-04-18T09:03:05.532Z,21.97
2023-04-18T09:05:32.868Z,21.79
2023-04-18T09:08:20.810Z,21.67
2023-04-18T09:10:50.100Z,22.40
2023-04-18T09:13:40.863Z,22.60
2023-04-18T09:16:08.862Z,22.85
2023-04-18T09:18:35.750Z,22.75
2023-04-18T09:21:16.812Z,22.51
2023-04-18T09:23:43.713Z,22.89
2023-04-18T09:26:13.823Z,23.11
2023-04-18T09:28:40.768Z,23.78
2023-04-18T09:31:09.766Z,24.38
2023-04-18T09:33:37.863Z,24.36
2023-04-18T09:36:18.314Z,24.32
2023-04-18T09:38:45.340Z,24.82
2023-04-18T09:41:21.532Z,24.80
2023-04-18T09:43:49.012Z,24.52
2023-04-18T09:46:16.598Z,24.42
2023-04-18T09:48:44.098Z,24.49
2023-04-18T09:51:14.460Z,24.19
2023-04-18T09:53:43.576Z,24.07
2023-04-18T09:56:19.978Z,23.23
2023-04-18T09:58:51.160Z,23.23
2023-04-18T10:01:19.030Z,23.09
2023-04-18T10:03:50.866Z,22.83
2023-04-18T10:06:19.775Z,22.99
2023-04-18T10:08:49.042Z,23.18
2023-04-18T10:11:20.352Z,22.41
2023-04-18T10:13:50.721Z,22.99
2023-04-18T10:16:20.238Z,23.38
2023-04-18T10:18:49.669Z,22.77
2023-04-18T10:21:19.722Z,22.48
2023-04-18T10:23:47.555Z,22.08
2023-04-18T10:26:14.705Z,22.74
2023-04-18T10:28:55.939Z,22.77
2023-04-18T10:31:24.208Z,22.84
2023-04-18T10:34:17.847Z,22.73
2023-04-18T10:37:05.147Z,23.89
2023-04-18T10:39:48.457Z,23.60
2023-04-18T10:42:16.064Z,23.13
2023-04-18T10:45:19.062Z,23.30
2023-04-18T10:47:46.148Z,23.03
2023-04-18T10:50:15.523Z,23.33
2023-04-18T10:52:43.638Z,23.39
2023-04-18T10:55:19.521Z,23.17
2023-04-18T10:57:49.481Z,23.79
2023-04-18T11:00:19.898Z,24.27
2023-04-18T11:02:54.750Z,24.77
2023-04-18T11:05:27.843Z,24.71
2023-04-18T11:07:55.830Z,23.83
2023-04-18T11:10:25.562Z,24.26
2023-04-18T11:12:55.614Z,24.29
2023-04-18T11:15:28.586Z,23.93
2023-04-18T11:17:59.119Z,23.59
2023-04-18T11:20:27.243Z,23.20
2023-04-18T11:22:56.515Z,23.02
2023-04-18T11:25:26.346Z,23.04
2023-04-18T11:27:54.142Z,22.05
2023-04-18T11:30:21.840Z,21.98
2023-04-18T11:32:51.328Z,22.09
2023-04-18T11:35:19.536Z,21.56
2023-04-18T11:37:46.917Z,22.16
2023-04-18T11:40:14.394Z,22.46
2023-04-18T11:42:42.380Z,23.07
2023-04-18T11:45:11.282Z,22.67
2023-04-18T11:47:39.536Z,23.16
2023-04-18T11:50:10.042Z,24.24
2023-04-18T11:52:38.250Z,23.46
2023-04-18T11:55:14.357Z,23.51
2023-04-18T11:57:43.518Z,23.61
2023-04-18T12:00:12.019Z,23.56
2023-04-18T12:02:43.978Z,23.52
2023-04-18T12:05:25.777Z,24.42
2023-04-18T12:07:55.001Z,23.47
2023-04-18T12:10:28.510Z,23.32
2023-04-18T12:12:58.784Z,23.79
2023-04-18T12:15:27.758Z,23.82
2023-04-18T12:17:59.054Z,24.39
2023-04-18T12:20:34.361Z,24.08
2023-04-18T12:23:02.173Z,24.72
2023-04-18T12:25:30.645Z,25.32
2023-04-18T12:27:59.442Z,24.92
2023-04-18T12:30:28.647Z,24.44
2023-04-18T12:32:58.072Z,24.19
2023-04-18T12:35:27.393Z,23.35
2023-04-18T12:38:00.229Z,23.21
2023-04-18T12:40:28.406Z,22.45
2023-04-18T12:42:58.845Z,22.94
2023-04-18T12:45:27.640Z,23.03
2023-04-18T12:47:55.622Z,23.31
2023-04-18T12:50:25.485Z,23.26
2023-04-18T12:52:54.398Z,23.29
2023-04-18T12:55:24.450Z,22.93
2023-04-18T12:57:53.388Z,22.79
2023-04-18T13:00:21.948Z,22.94
2023-04-18T13:02:50.377Z,22.59
2023-04-18T13:05:19.494Z,22.04
2023-04-18T13:07:48.140Z,22.28
2023-04-18T13:10:18.260Z,22.73
2023-04-18T13:12:48.071Z,22.62
2023-04-18T13:15:15.744Z,23.14
2023-04-18T13:17:44.909Z,23.16
2023-04-18T13:20:13.644Z,22.39
2023-04-18T13:22:43.337Z,22.27
2023-04-18T13:25:11.827Z,22.53
2023-04-18T13:27:41.797Z,22.41
2023-04-18T13:30:12.138Z,23.04
2023-04-18T13:32:39.640Z,23.36
2023-04-18T13:35:09.007Z,22.92
2023-04-18T13:37:36.908Z,23.36
2023-04-18T13:40:05.569Z,22.52
2023-04-18T13:42:33.150Z,22.72
2023-04-18T13:45:00.487Z,22.82
2023-04-18T13:47:30.226Z,23.00
2023-04-18T13:49:57.644Z,22.53
2023-04-18T13:52:25.453Z,22.79
2023-04-18T13:54:53.446Z,22.60
2023-04-18T13:57:20.901Z,22.82
2023-04-18T13:59:48.801Z,22.43
2023-04-18T14:02:16.877Z,22.22
2023-04-18T14:04:45.971Z,22.05
2023-04-18T14:07:13.411Z,22.20
2023-04-18T14:09:41.066Z,22.43
2023-04-18T14:12:09.113Z,22.91
2023-04-18T14:14:36.776Z,22.79
2023-04-18T14:17:04.416Z,23.45
2023-04-18T14:19:31.944Z,24.01
2023-04-18T14:22:01.786Z,23.40
2023-04-18T14:24:29.109Z,22.94
2023-04-18T14:26:56.710Z,22.86
2023-04-18T14:29:24.411Z,21.89
2023-04-18T14:31:51.557Z,21.99
2023-04-18T14:34:19.126Z,22.33
2023-04-18T14:36:46.912Z,22.95
2023-04-18T14:39:16.730Z,22.43
2023-04-18T14:41:44.339Z,22.11
2023-04-18T14:44:11.984Z,22.15
2023-04-18T14:46:39.915Z,22.05
2023-04-18T14:49:07.554Z,21.74
2023-04-18T14:51:35.279Z,20.53
2023-04-18T14:54:03.812Z,20.12
2023-04-18T14:56:32.630Z,20.25
2023-04-18T14:59:00.314Z,20.95
2023-04-18T15:01:27.040Z,20.76
2023-04-18T15:03:55.187Z,20.62
2023-04-18T15:06:22.444Z,21.75
2023-04-18T15:08:50.698Z,22.33
2023-04-18T15:11:18.282Z,21.80
2023-04-18T15:13:47.984Z,21.14
2023-04-18T15:16:15.929Z,21.71
2023-04-18T15:18:43.756Z,22.11
2023-04-18T15:21:11.451Z,22.11
2023-04-18T15:23:40.569Z,22.49
2023-04-18T15:26:08.813Z,22.90
2023-04-18T15:28:36.797Z,22.61
2023-04-18T15:31:06.682Z,21.84
2023-04-18T15:33:34.562Z,21.86
2023-04-18T15:36:01.926Z,20.74
2023-04-18T15:38:31.532Z,20.35
2023-04-18T15:41:00.464Z,20.59
2023-04-18T15:43:28.111Z,20.71
2023-04-18T15:45:55.507Z,20.94
2023-04-18T15:48:24.625Z,21.13
2023-04-18T15:50:52.504Z,21.75
2023-04-18T15:53:20.363Z,21.67
2023-04-18T15:55:48.188Z,21.44
2023-04-18T15:58:15.600Z,20.47
2023-04-18T16:00:43.084Z,19.79
2023-04-18T16:03:11.758Z,19.73
2023-04-18T16:05:41.101Z,19.72
2023-04-18T16:08:08.733Z,20.07
2023-04-18T16:10:36.297Z,20.00
2023-04-18T16:13:03.963Z,20.27
2023-04-18T16:15:32.069Z,20.87
2023-04-18T16:18:00.243Z,21.00
2023-04-18T16:20:27.551Z,21.31
2023-04-18T16:22:56.274Z,21.22
2023-04-18T16:25:24.063Z,20.90
2023-04-18T16:27:51.918Z,20.13
2023-04-18T16:30:19.354Z,20.16
2023-04-18T16:32:47.574Z,20.39
2023-04-18T16:35:15.287Z,21.08
2023-04-18T16:37:42.682Z,20.49
2023-04-18T16:40:12.734Z,20.99
2023-04-18T16:42:40.408Z,20.39
2023-04-18T16:45:08.749Z,20.59
2023-04-18T16:47:36.585Z,20.72
2023-04-18T16:50:04.259Z,20.65
2023-04-18T16:52:32.340Z,20.61
2023-04-18T16:55:00.091Z,21.14
2023-04-18T16:57:29.415Z,20.97
2023-04-18T16:59:56.920Z,21.17
2023-04-18T17:02:24.830Z,20.04
2023-04-18T17:04:52.362Z,20.41
2023-04-18T17:07:20.040Z,20.32
2023-04-18T17:09:47.137Z,19.72
2023-04-18T17:12:14.579Z,19.98
2023-04-18T17:14:43.619Z,20.20
2023-04-18T17:17:11.200Z,21.11
2023-04-18T17:19:39.479Z,21.12
2023-04-18T17:22:07.011Z,21.26
2023-04-18T17:24:34.426Z,20.49
2023-04-18T17:27:02.124Z,20.13
2023-04-18T17:29:29.781Z,20.10
2023-04-18T17:31:58.522Z,19.98
2023-04-18T17:34:26.448Z,20.01
2023-04-18T17:36:53.823Z,20.33
2023-04-18T17:39:21.385Z,20.55
2023-04-18T17:41:49.268Z,20.14
2023-04-18T17:44:16.740Z,19.77
2023-04-18T17:46:44.178Z,19.54
2023-04-18T17:49:13.433Z,19.68
2023-04-18T17:51:40.860Z,19.42
2023-04-18T17:54:08.533Z,19.21
2023-04-18T17:56:36.114Z,18.95
2023-04-18T17:59:03.817Z,19.16
2023-04-18T18:01:33.097Z,19.26
2023-04-18T18:04:01.020Z,19.50
2023-04-18T18:06:30.784Z,19.16
2023-04-18T18:08:58.031Z,19.27
2023-04-18T18:11:26.174Z,19.10
2023-04-18T18:13:53.719Z,18.86
2023-04-18T18:16:21.661Z,18.83
2023-04-18T18:18:49.476Z,18.77
2023-04-18T18:21:17.162Z,18.45
2023-04-18T18:23:46.829Z,18.23
2023-04-18T18:26:14.433Z,18.07
2023-04-18T18:28:42.099Z,17.72
2023-04-18T18:31:09.704Z,18.43
2023-04-18T18:33:36.959Z,18.42
2023-04-18T18:36:05.031Z,18.25
2023-04-18T18:38:32.982Z,17.72
2023-04-18T18:41:03.811Z,18.08
2023-04-18T18:43:32.919Z,17.46
2023-04-18T18:46:00.385Z,17.82
2023-04-18T18:48:27.998Z,17.83
2023-04-18T18:50:55.579Z,17.93
2023-04-18T18:53:23.297Z,17.84
2023-04-18T18:55:50.914Z,17.57
2023-04-18T18:58:20.204Z,17.21
2023-04-18T19:00:48.239Z,17.20
2023-04-18T19:03:16.075Z,17.06
2023-04-18T19:05:43.488Z,17.17
2023-04-18T19:08:10.854Z,16.88
2023-04-18T19:10:38.657Z,16.91
2023-04-18T19:13:06.031Z,16.78
2023-04-18T19:15:36.376Z,16.76
2023-04-18T19:18:04.236Z,16.76
2023-04-18T19:20:31.841Z,16.63
2023-04-18T19:22:59.294Z,16.55
2023-04-18T19:25:26.812Z,16.27
2023-04-18T19:27:54.034Z,16.39
2023-04-18T19:30:21.464Z,16.23
2023-04-18T19:32:51.213Z,16.16
2023-04-18T19:35:18.831Z,16.32
2023-04-18T19:37:47.674Z,16.21
2023-04-18T19:40:15.637Z,16.14
2023-04-18T19:42:43.292Z,16.20
2023-04-18T19:45:11.937Z,16.26
2023-04-18T19:47:41.374Z,16.25
2023-04-18T19:50:12.224Z,16.04
2023-04-18T19:52:40.112Z,16.02
2023-04-18T19:55:08.911Z,16.05
2023-04-18T19:57:38.081Z,15.84
2023-04-18T20:00:07.556Z,15.89
2023-04-18T20:02:34.935Z,15.92
2023-04-18T20:05:02.717Z,15.68
2023-04-18T20:07:32.892Z,15.93
2023-04-18T20:09:59.942Z,15.50
2023-04-18T20:12:27.058Z,15.55
2023-04-18T20:14:55.589Z,15.60
2023-04-18T20:17:23.327Z,15.64
2023-04-18T20:19:51.043Z,15.61
2023-04-18T20:22:19.716Z,15.54
2023-04-18T20:24:49.437Z,15.37
2023-04-18T20:27:17.010Z,15.20
2023-04-18T20:29:44.949Z,15.16
2023-04-18T20:32:12.394Z,15.12
2023-04-18T20:34:40.045Z,15.02
2023-04-18T20:37:07.734Z,14.94
2023-04-18T20:39:35.325Z,14.91
2023-04-18T20:42:04.833Z,14.98
2023-04-18T20:44:33.557Z,14.81
2023-04-18T20:47:00.938Z,14.78
2023-04-18T20:49:28.615Z,14.79
2023-04-18T20:51:56.503Z,14.78
2023-04-18T20:54:24.260Z,14.65
2023-04-18T20:56:51.960Z,14.22
2023-04-18T20:59:21.475Z,14.51
2023-04-18T21:01:49.596Z,14.48
2023-04-18T21:04:17.408Z,14.60
2023-04-18T21:06:45.053Z,14.62
2023-04-18T21:09:11.937Z,14.44
2023-04-18T21:11:39.325Z,14.50
2023-04-18T21:14:07.697Z,14.63
2023-04-18T21:16:36.427Z,14.68
2023-04-18T21:19:04.150Z,14.61
2023-04-18T21:21:31.837Z,14.61
2023-04-18T21:23:59.516Z,14.48
2023-04-18T21:26:26.991Z,14.27
2023-04-18T21:28:58.989Z,14.37
2023-04-18T21:31:28.414Z,14.38
2023-04-18T21:33:58.877Z,14.29
2023-04-18T21:36:26.862Z,14.37
2023-04-18T21:38:55.357Z,14.30
2023-04-18T21:41:23.795Z,13.95
2023-04-18T21:43:52.036Z,14.46
2023-04-18T21:46:19.718Z,14.40
2023-04-18T21:48:49.040Z,14.53
2023-04-18T21:51:18.153Z,14.32
2023-04-18T21:53:46.118Z,14.72
2023-04-18T21:56:13.758Z,14.27
2023-04-18T21:58:41.283Z,14.38
2023-04-18T22:01:09.094Z,14.23
2023-04-18T22:03:37.132Z,14.48
2023-04-18T22:06:04.783Z,14.09
2023-04-18T22:08:34.643Z,13.99
2023-04-18T22:11:02.249Z,14.01
2023-04-18T22:13:30.343Z,14.29
2023-04-18T22:15:57.898Z,14.39
2023-04-18T22:18:25.347Z,14.08
2023-04-18T22:20:53.091Z,14.21
2023-04-18T22:23:20.298Z,14.18
2023-04-18T22:25:49.803Z,13.86
2023-04-18T22:28:17.205Z,13.98
2023-04-18T22:30:45.336Z,14.26
2023-04-18T22:33:12.936Z,14.43
2023-04-18T22:35:40.620Z,14.51
2023-04-18T22:38:08.045Z,13.81
2023-04-18T22:40:36.468Z,14.44
2023-04-18T22:43:05.419Z,14.85
2023-04-18T22:45:34.057Z,14.48
2023-04-18T22:48:01.477Z,14.62
2023-04-18T22:50:28.359Z,14.82
2023-04-18T22:52:56.885Z,14.53
2023-04-18T22:55:25.225Z,14.42
2023-04-18T22:57:52.597Z,14.10
2023-04-18T23:00:22.220Z,14.50
2023-04-18T23:02:49.879Z,14.76
2023-04-18T23:05:17.212Z,14.35
2023-04-18T23:07:44.729Z,14.03
2023-04-18T23:10:12.638Z,14.48
2023-04-18T23:12:40.838Z,14.84
2023-04-18T23:15:08.973Z,14.64
2023-04-18T23:17:37.855Z,14.89
2023-04-18T23:20:06.201Z,15.05
2023-04-18T23:22:34.189Z,14.99
2023-04-18T23:25:01.584Z,14.91
2023-04-18T23:27:28.962Z,14.64
2023-04-18T23:29:56.651Z,14.41
2023-04-18T23:32:24.808Z,14.31
2023-04-18T23:34:53.852Z,14.54
2023-04-18T23:37:21.336Z,14.40
2023-04-18T23:39:49.418Z,14.46
2023-04-18T23:42:17.080Z,14.42
2023-04-18T23:44:44.664Z,14.18
2023-04-18T23:47:12.120Z,14.04
2023-04-18T23:49:40.258Z,13.98
2023-04-18T23:52:09.532Z,13.90
2023-04-18T23:54:37.059Z,13.73
2023-04-18T23:57:04.560Z,13.86
2023-04-18T23:59:31.861Z,13.84
